Time;durP1;ratioP1;P1;durP2;ratioP2;P2;SDS_P1;SDS_P2;PMS_P1;PMS_P2;Temp;Humidity;BMP_temperature;BMP_pressure;BME280_temperature;BME280_humidity;BME280_pressure;Samples;Min_cycle;Max_cycle;Signal;HPM_P1;HPM_P2
2022/04/21 00:00:38;;;;;;;;;;;;;;;11.55;36.83;99275.31;4489637;31;33378;-69
2022/04/21 00:03:06;;;;;;;;;;;;;;;11.69;36.41;99273.31;4488657;31;32717;-68
2022/04/21 00:05:34;;;;;;;;;;;;;;;11.56;36.81;99270.84;4487420;31;34338;-69
2022/04/21 00:08:03;;;;;;;;;;;;;;;11.66;36.54;99271.75;4492886;31;34261;-69
2022/04/21 00:10:31;;;;;;;;;;;;;;;11.64;36.46;99277.22;4486343;31;33451;-70
2022/04/21 00:12:59;;;;;;;;;;;;;;;11.69;36.39;99267.94;4485279;31;33449;-69
2022/04/21 00:15:27;;;;;;;;;;;;;;;11.63;36.75;99267.50;4473732;32;33896;-70
2022/04/21 00:17:57;;;;;;;;;;;;;;;11.46;37.00;99276.16;4484739;32;32754;-68
2022/04/21 00:20:25;;;;;;;;;;;;;;;11.10;37.97;99278.28;4486214;31;34585;-74
2022/04/21 00:25:40;;;;;;;;;;;;;;;11.50;36.91;99274.91;4478198;31;35137;-72
2022/04/21 00:28:07;;;;;;;;;;;;;;;11.59;37.02;99275.94;4488673;31;33563;-70
2022/04/21 00:30:36;;;;;;;;;;;;;;;11.75;36.72;99270.06;4487100;31;34527;-72
2022/04/21 00:33:04;;;;;;;;;;;;;;;11.69;36.46;99267.94;4489498;31;32213;-71
2022/04/21 00:35:32;;;;;;;;;;;;;;;11.48;37.03;99266.12;4492737;31;32979;-71
2022/04/21 00:38:00;;;;;;;;;;;;;;;11.42;37.24;99261.28;4496501;31;35384;-73
2022/04/21 00:40:29;;;;;;;;;;;;;;;11.80;36.07;99257.13;4488166;31;34311;-73
2022/04/21 00:42:58;;;;;;;;;;;;;;;11.43;36.73;99258.50;4488753;31;33584;-73
2022/04/21 00:45:27;;;;;;;;;;;;;;;11.59;36.33;99268.75;4478252;31;35079;-71
2022/04/21 00:47:57;;;;;;;;;;;;;;;11.24;37.07;99269.09;4487045;31;34194;-69
2022/04/21 00:50:28;;;;;;;;;;;;;;;11.54;36.45;99267.44;4485708;31;33963;-69
2022/04/21 00:52:56;;;;;;;;;;;;;;;11.61;36.57;99255.19;4475293;31;32288;-68
2022/04/21 00:55:24;;;;;;;;;;;;;;;11.53;36.56;99258.56;4490069;31;33088;-67
2022/04/21 00:57:53;;;;;;;;;;;;;;;11.11;38.16;99255.88;4485570;31;35420;-69
2022/04/21 01:00:21;;;;;;;;;;;;;;;11.47;36.93;99256.41;4470856;31;34086;-68
2022/04/21 01:02:49;;;;;;;;;;;;;;;11.47;36.58;99258.22;4486577;31;32319;-69
2022/04/21 01:05:26;;;;;;;;;;;;;;;11.47;37.37;99264.44;4500603;31;35002;-70
2022/04/21 01:07:54;;;;;;;;;;;;;;;11.59;36.54;99252.66;4496978;31;35313;-70
2022/04/21 01:10:22;;;;;;;;;;;;;;;11.31;37.08;99254.19;4494644;31;34054;-69
2022/04/21 01:12:51;;;;;;;;;;;;;;;11.05;38.15;99258.25;4487525;31;33514;-70
2022/04/21 01:15:19;;;;;;;;;;;;;;;11.30;37.65;99254.28;4493745;31;33898;-69
2022/04/21 01:17:47;;;;;;;;;;;;;;;11.21;37.53;99260.47;4493412;31;35211;-68
2022/04/21 01:20:19;;;;;;;;;;;;;;;11.34;37.42;99258.44;4489244;31;33205;-67
2022/04/21 01:22:48;;;;;;;;;;;;;;;10.88;38.02;99257.84;4486866;31;33460;-69
2022/04/21 01:25:16;;;;;;;;;;;;;;;10.82;38.36;99249.44;4486131;31;35600;-67
2022/04/21 01:27:43;;;;;;;;;;;;;;;10.86;38.84;99254.41;4486645;31;34944;-69
2022/04/21 01:30:12;;;;;;;;;;;;;;;10.95;38.16;99253.66;4485338;31;34557;-68
2022/04/21 01:32:42;;;;;;;;;;;;;;;10.24;39.13;99257.72;4485462;31;32212;-66
2022/04/21 01:35:10;;;;;;;;;;;;;;;10.35;38.90;99264.94;4486975;31;34159;-73
2022/04/21 01:43:12;;;;;;;;;;;;;;;10.35;38.68;99251.56;4487800;31;32651;-72
2022/04/21 01:45:41;;;;;;;;;;;;;;;10.09;40.63;99259.00;4486289;31;34263;-70
2022/04/21 01:48:09;;;;;;;;;;;;;;;9.79;40.22;99249.75;4484273;31;35109;-74
2022/04/21 01:50:38;;;;;;;;;;;;;;;9.45;41.83;99248.91;4479559;31;33210;-73
2022/04/21 01:53:06;;;;;;;;;;;;;;;10.11;40.11;99244.53;4484385;31;33395;-70
2022/04/21 01:55:34;;;;;;;;;;;;;;;9.98;40.90;99242.00;4490382;31;34817;-72
2022/04/21 01:58:02;;;;;;;;;;;;;;;10.54;38.59;99245.53;4475414;31;33032;-71
2022/04/21 02:00:30;;;;;;;;;;;;;;;10.59;38.79;99240.66;4488598;31;33278;-71
2022/04/21 02:02:58;;;;;;;;;;;;;;;10.23;39.89;99240.84;4482549;31;33510;-72
2022/04/21 02:05:27;;;;;;;;;;;;;;;10.44;39.88;99240.09;4478701;31;34820;-71
2022/04/21 02:07:55;;;;;;;;;;;;;;;10.77;38.78;99240.97;4482441;31;34590;-70
2022/04/21 02:10:23;;;;;;;;;;;;;;;10.97;37.43;99237.44;4479062;32;33426;-71
2022/04/21 02:12:53;;;;;;;;;;;;;;;10.74;38.13;99236.69;4485064;31;32399;-71
2022/04/21 02:15:23;;;;;;;;;;;;;;;10.31;39.41;99234.06;4484789;31;33776;-71
2022/04/21 02:17:52;;;;;;;;;;;;;;;10.55;38.71;99225.84;4486561;31;33218;-70
2022/04/21 02:20:23;;;;;;;;;;;;;;;10.60;38.66;99224.47;4485252;31;35732;-72
2022/04/21 02:22:53;;;;;;;;;;;;;;;10.67;38.14;99222.97;4493163;31;33577;-71
2022/04/21 02:25:22;;;;;;;;;;;;;;;10.68;38.03;99223.81;4491858;31;34186;-68
2022/04/21 02:27:51;;;;;;;;;;;;;;;9.93;39.58;99225.47;4483018;31;34302;-70
2022/04/21 02:30:21;;;;;;;;;;;;;;;10.13;39.55;99225.66;4492356;31;34721;-71
2022/04/21 02:32:51;;;;;;;;;;;;;;;10.63;38.49;99220.72;4486124;31;33771;-71
2022/04/21 02:35:20;;;;;;;;;;;;;;;10.35;39.83;99222.97;4484035;31;33105;-71
2022/04/21 02:37:50;;;;;;;;;;;;;;;10.48;38.92;99223.66;4487873;31;33357;-69
2022/04/21 02:40:21;;;;;;;;;;;;;;;10.21;39.86;99226.75;4484985;31;33396;-72
2022/04/21 02:42:50;;;;;;;;;;;;;;;10.45;39.32;99231.94;4485770;31;33026;-67
2022/04/21 02:45:19;;;;;;;;;;;;;;;10.36;39.42;99230.00;4486136;31;34156;-68
2022/04/21 02:47:47;;;;;;;;;;;;;;;10.69;38.01;99222.87;4480723;31;31865;-70
2022/04/21 02:50:16;;;;;;;;;;;;;;;10.67;38.17;99222.13;4473354;31;34398;-71
2022/04/21 02:52:44;;;;;;;;;;;;;;;10.30;38.88;99227.84;4492805;31;32748;-68
2022/04/21 02:58:04;;;;;;;;;;;;;;;10.31;38.88;99223.37;4475934;31;33432;-67
2022/04/21 03:00:34;;;;;;;;;;;;;;;9.65;40.42;99224.13;4481758;31;34410;-67
2022/04/21 03:03:04;;;;;;;;;;;;;;;9.75;40.37;99224.25;4475034;31;32268;-65
2022/04/21 03:05:33;;;;;;;;;;;;;;;9.71;40.27;99226.31;4493053;31;36343;-68
2022/04/21 03:08:03;;;;;;;;;;;;;;;9.66;40.42;99224.97;4485814;31;34984;-67
2022/04/21 03:10:32;;;;;;;;;;;;;;;9.63;41.46;99222.53;4492100;31;33408;-67
2022/04/21 03:13:02;;;;;;;;;;;;;;;9.66;40.11;99222.31;4483226;31;32926;-67
2022/04/21 03:15:31;;;;;;;;;;;;;;;9.65;39.99;99224.13;4490041;31;33045;-68
2022/04/21 03:18:00;;;;;;;;;;;;;;;9.63;40.37;99230.56;4482685;31;33672;-66
2022/04/21 03:26:17;;;;;;;;;;;;;;;9.70;40.33;99221.97;4484989;31;34089;-66
2022/04/21 03:28:46;;;;;;;;;;;;;;;9.95;40.39;99223.53;4484664;31;34418;-69
2022/04/21 03:31:15;;;;;;;;;;;;;;;10.14;39.42;99214.84;4495324;31;34439;-67
2022/04/21 03:33:43;;;;;;;;;;;;;;;9.88;40.51;99219.62;4494269;31;32321;-69
2022/04/21 03:36:14;;;;;;;;;;;;;;;10.08;40.03;99223.37;4491858;31;34400;-69
2022/04/21 03:38:44;;;;;;;;;;;;;;;10.29;40.12;99223.47;4490551;31;33991;-69
2022/04/21 03:41:19;;;;;;;;;;;;;;;9.86;41.17;99232.28;4496462;31;33384;-70
2022/04/21 03:43:58;;;;;;;;;;;;;;;10.66;38.57;99223.97;4488916;31;31951;-69
2022/04/21 03:46:27;;;;;;;;;;;;;;;10.76;37.66;99221.38;4486145;31;34165;-71
2022/04/21 03:48:56;;;;;;;;;;;;;;;10.53;38.25;99215.28;4488629;31;35378;-69
2022/04/21 03:51:27;;;;;;;;;;;;;;;10.29;39.81;99234.19;4488954;31;34382;-69
2022/04/21 03:53:56;;;;;;;;;;;;;;;10.14;39.41;99225.53;4491937;31;32925;-69
2022/04/21 03:56:26;;;;;;;;;;;;;;;10.60;39.04;99221.81;4487531;31;32987;-69
2022/04/21 03:58:54;;;;;;;;;;;;;;;10.27;39.18;99228.09;4485677;31;33184;-70
2022/04/21 04:01:23;;;;;;;;;;;;;;;10.29;39.63;99230.66;4480087;31;34373;-69
2022/04/21 04:03:52;;;;;;;;;;;;;;;10.42;39.89;99232.19;4489974;31;35068;-71
2022/04/21 04:11:54;;;;;;;;;;;;;;;10.61;38.58;99236.03;4490153;31;33178;-71
2022/04/21 04:14:23;;;;;;;;;;;;;;;10.68;38.26;99240.72;4489467;31;34014;-68
2022/04/21 04:16:52;;;;;;;;;;;;;;;10.52;38.63;99242.12;4489976;31;32878;-68
2022/04/21 04:19:23;;;;;;;;;;;;;;;10.44;39.74;99248.13;4486617;31;33437;-70
2022/04/21 04:21:52;;;;;;;;;;;;;;;11.08;38.26;99239.22;4490132;31;34200;-69
2022/04/21 04:24:21;;;;;;;;;;;;;;;11.15;38.61;99238.56;4490606;31;33397;-70
2022/04/21 04:26:50;;;;;;;;;;;;;;;11.18;38.27;99242.81;4492841;31;34044;-70
2022/04/21 04:29:24;;;;;;;;;;;;;;;11.23;38.42;99240.59;4488025;31;33965;-70
2022/04/21 04:32:05;;;;;;;;;;;;;;;11.37;38.53;99244.78;4490654;31;33157;-70
2022/04/21 04:34:34;;;;;;;;;;;;;;;11.71;37.02;99249.88;4495882;31;33754;-71
2022/04/21 04:37:06;;;;;;;;;;;;;;;11.59;37.11;99252.66;4486132;31;34310;-70
2022/04/21 04:39:35;;;;;;;;;;;;;;;11.28;38.54;99242.88;4485428;31;34209;-69
2022/04/21 04:42:16;;;;;;;;;;;;;;;11.21;38.57;99247.06;4485701;31;33631;-68
2022/04/21 04:44:46;;;;;;;;;;;;;;;11.16;39.03;99240.25;4482952;31;36277;-69
2022/04/21 04:47:16;;;;;;;;;;;;;;;11.85;37.07;99249.56;4482640;32;35036;-67
2022/04/21 04:49:45;;;;;;;;;;;;;;;12.01;36.33;99262.47;4484990;31;34092;-69
2022/04/21 04:52:16;;;;;;;;;;;;;;;12.16;36.00;99261.09;4476385;31;33046;-69
2022/04/21 04:54:45;;;;;;;;;;;;;;;12.37;35.65;99254.81;4484050;31;32445;-69
2022/04/21 04:57:15;;;;;;;;;;;;;;;12.41;35.89;99249.00;4494220;31;32898;-71
2022/04/21 04:59:44;;;;;;;;;;;;;;;12.45;36.03;99249.59;4487146;31;34951;-69
2022/04/21 05:02:14;;;;;;;;;;;;;;;12.31;36.94;99254.37;4483112;31;33781;-69
2022/04/21 05:04:42;;;;;;;;;;;;;;;12.65;36.41;99251.31;4485077;31;32424;-69
2022/04/21 05:07:14;;;;;;;;;;;;;;;12.73;36.55;99262.19;4483218;31;34235;-70
2022/04/21 05:09:43;;;;;;;;;;;;;;;12.87;36.16;99252.88;4485312;31;33071;-70
2022/04/21 05:12:12;;;;;;;;;;;;;;;12.56;37.57;99258.38;4484399;31;33306;-71
2022/04/21 05:14:41;;;;;;;;;;;;;;;12.93;36.77;99256.84;4485283;31;33351;-71
2022/04/21 05:17:12;;;;;;;;;;;;;;;13.22;36.23;99263.03;4494234;31;32940;-71
2022/04/21 05:19:40;;;;;;;;;;;;;;;13.58;35.61;99257.94;4491515;31;34168;-70
2022/04/21 05:22:12;;;;;;;;;;;;;;;13.67;35.63;99264.25;4489717;31;34380;-71
2022/04/21 05:24:43;;;;;;;;;;;;;;;13.84;35.47;99259.97;4483665;31;33742;-70
2022/04/21 05:27:12;;;;;;;;;;;;;;;13.98;34.60;99260.31;4478424;31;32890;-72
2022/04/21 05:32:30;;;;;;;;;;;;;;;14.30;34.59;99250.12;4493327;31;34571;-73
2022/04/21 05:34:59;;;;;;;;;;;;;;;14.64;34.43;99253.06;4468038;32;33590;-70
2022/04/21 05:37:28;;;;;;;;;;;;;;;14.71;34.11;99247.91;4487671;31;34580;-71
2022/04/21 05:39:58;;;;;;;;;;;;;;;14.95;33.13;99253.50;4487924;31;33585;-71
2022/04/21 05:42:27;;;;;;;;;;;;;;;15.27;32.50;99244.00;4492230;31;33106;-69
2022/04/21 05:44:57;;;;;;;;;;;;;;;15.56;31.39;99236.44;4482771;31;32276;-69
2022/04/21 05:47:27;;;;;;;;;;;;;;;15.60;31.90;99240.53;4490971;31;32634;-68
2022/04/21 05:49:56;;;;;;;;;;;;;;;15.54;32.14;99235.78;4492514;31;33264;-68
2022/04/21 05:52:27;;;;;;;;;;;;;;;15.90;31.70;99242.94;4481875;31;33340;-67
2022/04/21 05:54:56;;;;;;;;;;;;;;;16.46;30.99;99241.44;4472232;31;32310;-68
2022/04/21 05:57:25;;;;;;;;;;;;;;;17.18;29.72;99244.47;4488539;31;34263;-66
2022/04/21 05:59:56;;;;;;;;;;;;;;;17.35;29.20;99242.59;4478155;31;35542;-68
2022/04/21 06:02:28;;;;;;;;;;;;;;;16.83;30.39;99245.63;4494141;31;34553;-69
2022/04/21 06:05:05;;;;;;;;;;;;;;;16.53;31.19;99239.75;4479251;31;34514;-69
2022/04/21 06:07:34;;;;;;;;;;;;;;;16.41;31.09;99241.09;4487451;31;33334;-67
2022/04/21 06:10:03;;;;;;;;;;;;;;;16.46;30.76;99242.28;4484466;31;33911;-68
2022/04/21 06:12:34;;;;;;;;;;;;;;;16.44;31.55;99235.38;4487525;31;33770;-69
2022/04/21 06:15:04;;;;;;;;;;;;;;;16.20;31.97;99230.72;4487459;31;32497;-68
2022/04/21 06:17:33;;;;;;;;;;;;;;;16.25;31.66;99234.62;4490755;31;34389;-68
2022/04/21 06:20:04;;;;;;;;;;;;;;;16.24;31.04;99238.34;4482610;31;34466;-68
2022/04/21 06:22:34;;;;;;;;;;;;;;;16.05;30.83;99244.00;4482353;31;34254;-68
2022/04/21 06:25:04;;;;;;;;;;;;;;;16.55;30.36;99240.47;4487035;31;32739;-69
2022/04/21 06:27:34;;;;;;;;;;;;;;;16.57;30.92;99241.16;4488804;31;32620;-69
2022/04/21 06:30:03;;;;;;;;;;;;;;;16.74;30.30;99242.03;4485823;31;34280;-68
2022/04/21 06:32:34;;;;;;;;;;;;;;;16.44;31.86;99238.09;4481295;31;32680;-69
2022/04/21 06:35:04;;;;;;;;;;;;;;;16.81;30.21;99228.72;4485142;31;33325;-70
2022/04/21 06:37:35;;;;;;;;;;;;;;;16.87;29.79;99228.88;4488240;31;32994;-67
2022/04/21 06:40:05;;;;;;;;;;;;;;;16.78;30.35;99229.88;4487571;31;32969;-70
2022/04/21 06:42:37;;;;;;;;;;;;;;;16.84;30.78;99228.38;4486663;31;33175;-70
2022/04/21 06:48:02;;;;;;;;;;;;;;;17.27;29.99;99224.50;4487723;31;33762;-72
2022/04/21 06:50:39;;;;;;;;;;;;;;;17.09;29.95;99221.13;4480582;31;33742;-71
2022/04/21 06:53:16;;;;;;;;;;;;;;;17.08;29.75;99228.41;4486257;31;32530;-71
2022/04/21 06:55:45;;;;;;;;;;;;;;;16.72;30.69;99220.56;4486934;31;32600;-70
2022/04/21 06:58:15;;;;;;;;;;;;;;;16.77;30.87;99226.34;4495259;31;32842;-69
2022/04/21 07:00:43;;;;;;;;;;;;;;;16.61;31.57;99225.44;4482249;31;33057;-66
2022/04/21 07:03:13;;;;;;;;;;;;;;;16.81;31.32;99226.00;4484089;31;33376;-68
2022/04/21 07:05:44;;;;;;;;;;;;;;;16.82;31.28;99216.87;4488016;31;32305;-68
2022/04/21 07:08:14;;;;;;;;;;;;;;;16.81;29.99;99213.34;4482083;31;34174;-68
2022/04/21 07:10:43;;;;;;;;;;;;;;;16.96;30.15;99214.38;4490490;31;32962;-67
2022/04/21 07:13:13;;;;;;;;;;;;;;;17.38;31.02;99221.44;4484177;31;34210;-69
2022/04/21 07:15:43;;;;;;;;;;;;;;;17.21;29.87;99212.50;4492381;31;33668;-68
2022/04/21 07:18:13;;;;;;;;;;;;;;;17.45;29.10;99221.59;4485865;31;33950;-68
2022/04/21 07:20:42;;;;;;;;;;;;;;;16.78;28.02;99224.47;4481746;31;34193;-69
2022/04/21 07:23:11;;;;;;;;;;;;;;;16.72;28.27;99217.00;4493826;31;33154;-70
2022/04/21 07:25:42;;;;;;;;;;;;;;;15.88;29.31;99217.94;4486790;31;33419;-69
2022/04/21 07:28:11;;;;;;;;;;;;;;;16.73;29.00;99214.16;4482042;31;33191;-69
2022/04/21 07:30:40;;;;;;;;;;;;;;;17.31;28.89;99217.75;4489385;31;32994;-69
2022/04/21 07:33:10;;;;;;;;;;;;;;;15.97;28.75;99223.22;4487397;31;34349;-69
2022/04/21 07:35:41;;;;;;;;;;;;;;;15.72;28.89;99224.94;4481768;31;32450;-68
2022/04/21 07:38:10;;;;;;;;;;;;;;;15.42;30.00;99215.47;4485619;31;33091;-68
2022/04/21 07:40:42;;;;;;;;;;;;;;;16.47;29.46;99219.69;4485493;31;32981;-70
2022/04/21 07:43:13;;;;;;;;;;;;;;;16.34;28.82;99219.31;4481600;31;33261;-69
2022/04/21 07:45:44;;;;;;;;;;;;;;;15.51;29.86;99228.00;4447419;31;1087083;-70
2022/04/21 07:48:12;;;;;;;;;;;;;;;16.44;29.00;99216.47;4481929;31;32680;-68
2022/04/21 07:50:42;;;;;;;;;;;;;;;17.16;29.08;99211.31;4481039;31;34163;-70
2022/04/21 07:53:22;;;;;;;;;;;;;;;16.19;29.56;99219.09;4490573;31;32995;-68
2022/04/21 07:55:53;;;;;;;;;;;;;;;15.56;30.05;99228.34;4487877;31;33472;-68
2022/04/21 07:58:26;;;;;;;;;;;;;;;16.18;29.45;99216.53;4485089;31;34055;-68
2022/04/21 08:00:55;;;;;;;;;;;;;;;16.37;29.45;99219.00;4485475;31;35276;-71
2022/04/21 08:03:26;;;;;;;;;;;;;;;16.48;28.77;99218.66;4470990;31;34146;-73
2022/04/21 08:05:57;;;;;;;;;;;;;;;16.13;29.00;99219.75;4486862;31;33512;-71
2022/04/21 08:08:26;;;;;;;;;;;;;;;16.68;28.32;99212.97;4486250;31;33065;-71
2022/04/21 08:10:55;;;;;;;;;;;;;;;15.45;29.61;99214.31;4481013;31;33072;-71
2022/04/21 08:13:28;;;;;;;;;;;;;;;15.77;29.29;99214.53;4489574;31;33027;-71
2022/04/21 08:15:58;;;;;;;;;;;;;;;16.14;29.47;99213.31;4480597;31;33418;-69
2022/04/21 08:18:27;;;;;;;;;;;;;;;16.52;28.73;99213.78;4492346;31;33739;-69
2022/04/21 08:21:01;;;;;;;;;;;;;;;16.17;29.01;99225.66;4495336;31;33418;-70
2022/04/21 08:32:33;;;;;;;;;;;;;;;15.73;28.24;99232.06;4486237;31;34401;-70
2022/04/21 08:33:21;;;;;;;;;;;;;;;16.21;28.95;99224.31;4485863;31;34076;-70
2022/04/21 08:36:05;;;;;;;;;;;;;;;16.86;28.94;99221.81;4488903;31;33142;-72
2022/04/21 08:38:47;;;;;;;;;;;;;;;16.68;28.72;99211.09;4487540;31;33562;-70
2022/04/21 08:41:30;;;;;;;;;;;;;;;15.69;30.26;99214.47;4491447;31;32897;-70
2022/04/21 08:44:08;;;;;;;;;;;;;;;15.76;29.83;99220.06;4488039;31;33953;-69
2022/04/21 08:46:50;;;;;;;;;;;;;;;15.47;29.25;99218.50;4475594;31;33613;-69
2022/04/21 08:49:34;;;;;;;;;;;;;;;15.12;29.97;99225.72;4485349;31;32557;-68
2022/04/21 08:52:06;;;;;;;;;;;;;;;15.10;29.91;99218.78;4471730;31;34299;-67
2022/04/21 08:54:39;;;;;;;;;;;;;;;15.72;27.48;99232.19;4488768;31;32787;-69
2022/04/21 08:57:14;;;;;;;;;;;;;;;15.77;27.55;99232.56;4472161;32;33110;-69
2022/04/21 08:59:50;;;;;;;;;;;;;;;15.74;27.83;99238.28;4484255;31;33427;-69
2022/04/21 09:02:21;;;;;;;;;;;;;;;16.20;26.92;99228.88;4486480;31;34359;-69
2022/04/21 09:04:53;;;;;;;;;;;;;;;17.12;26.76;99224.34;4488644;31;34280;-67
2022/04/21 09:07:32;;;;;;;;;;;;;;;16.81;26.41;99224.16;4486942;31;34542;-69
2022/04/21 09:10:15;;;;;;;;;;;;;;;16.78;26.34;99221.78;4485017;31;33630;-66
2022/04/21 09:12:55;;;;;;;;;;;;;;;17.90;25.60;99226.44;4488645;31;33684;-71
2022/04/21 09:15:45;;;;;;;;;;;;;;;17.56;26.23;99223.97;4487543;31;33631;-69
2022/04/21 09:18:20;;;;;;;;;;;;;;;17.65;26.12;99230.19;4487103;31;33225;-69
2022/04/21 09:20:55;;;;;;;;;;;;;;;18.26;24.43;99225.94;4492574;31;32242;-68
2022/04/21 09:23:36;;;;;;;;;;;;;;;17.16;25.15;99230.25;4484363;31;33192;-66
2022/04/21 09:26:12;;;;;;;;;;;;;;;17.13;26.03;99219.78;4483217;31;35428;-69
2022/04/21 09:28:59;;;;;;;;;;;;;;;17.04;25.67;99224.31;4488115;31;34310;-65
2022/04/21 09:31:43;;;;;;;;;;;;;;;17.64;25.10;99229.34;4485811;31;33666;-66
2022/04/21 09:34:24;;;;;;;;;;;;;;;16.95;26.92;99226.22;4484216;31;33459;-67
2022/04/21 09:37:05;;;;;;;;;;;;;;;16.86;26.09;99235.31;4486757;31;34288;-66
2022/04/21 09:39:40;;;;;;;;;;;;;;;17.53;24.83;99235.12;4484472;31;35532;-66
2022/04/21 09:42:11;;;;;;;;;;;;;;;17.15;25.97;99234.81;4485991;31;32125;-68
2022/04/21 09:47:31;;;;;;;;;;;;;;;18.02;26.38;99235.03;4483333;31;34127;-69
2022/04/21 09:50:10;;;;;;;;;;;;;;;18.32;26.39;99216.25;4483527;31;34280;-66
2022/04/21 09:52:50;;;;;;;;;;;;;;;19.05;24.60;99214.97;4475042;31;34229;-67
2022/04/21 09:55:27;;;;;;;;;;;;;;;19.75;23.82;99208.41;4489753;31;35349;-65
2022/04/21 09:58:17;;;;;;;;;;;;;;;19.85;23.42;99210.84;4478848;31;32815;-65
2022/04/21 10:00:54;;;;;;;;;;;;;;;18.42;24.47;99205.22;4490463;31;33511;-69
2022/04/21 10:03:33;;;;;;;;;;;;;;;19.15;24.67;99198.44;4484064;31;34120;-67
2022/04/21 10:06:10;;;;;;;;;;;;;;;17.83;25.52;99195.66;4469807;32;35263;-65
2022/04/21 10:08:56;;;;;;;;;;;;;;;18.03;25.12;99197.97;4486776;31;34577;-67
2022/04/21 10:11:28;;;;;;;;;;;;;;;18.73;23.83;99197.94;4495615;31;35044;-66
2022/04/21 10:14:12;;;;;;;;;;;;;;;18.68;24.45;99205.72;4485103;31;33854;-66
2022/04/21 10:16:58;;;;;;;;;;;;;;;19.19;23.30;99194.34;4489483;31;33949;-67
2022/04/21 10:19:39;;;;;;;;;;;;;;;19.25;23.39;99197.16;4484368;31;33066;-67
2022/04/21 10:22:25;;;;;;;;;;;;;;;18.69;24.27;99196.56;4490293;31;34519;-66
2022/04/21 10:24:58;;;;;;;;;;;;;;;19.65;23.14;99189.69;4475262;31;31989;-66
2022/04/21 10:27:40;;;;;;;;;;;;;;;20.32;23.40;99198.69;4474187;31;34459;-66
2022/04/21 10:30:19;;;;;;;;;;;;;;;20.71;22.99;99184.75;4489668;31;33078;-68
2022/04/21 10:32:55;;;;;;;;;;;;;;;20.74;23.42;99186.22;4474339;32;33228;-66
2022/04/21 10:35:39;;;;;;;;;;;;;;;19.52;24.15;99190.28;4481014;31;31942;-65
2022/04/21 10:38:19;;;;;;;;;;;;;;;18.59;25.49;99196.81;4489478;31;33029;-66
2022/04/21 10:41:06;;;;;;;;;;;;;;;19.24;24.73;99186.50;4496967;31;33092;-66
2022/04/21 10:43:49;;;;;;;;;;;;;;;18.71;24.36;99177.41;4486099;31;33110;-66
2022/04/21 10:46:26;;;;;;;;;;;;;;;19.36;24.37;99182.31;4485979;31;33620;-66
2022/04/21 10:49:10;;;;;;;;;;;;;;;18.60;23.98;99178.69;4494791;31;33832;-66
2022/04/21 10:57:55;;;;;;;;;;;;;;;18.87;24.58;99162.91;4486964;31;32411;-66
2022/04/21 11:00:34;;;;;;;;;;;;;;;18.05;26.51;99163.44;4483221;31;34406;-66
2022/04/21 11:03:09;;;;;;;;;;;;;;;18.91;25.07;99162.37;4482617;31;33101;-67
2022/04/21 11:06:06;;;;;;;;;;;;;;;18.06;25.61;99168.66;4485678;31;33786;-68
2022/04/21 11:08:43;;;;;;;;;;;;;;;19.50;24.78;99159.75;4485019;31;33653;-68
2022/04/21 11:11:15;;;;;;;;;;;;;;;18.98;24.59;99149.78;4469631;32;34353;-71
2022/04/21 11:13:48;;;;;;;;;;;;;;;19.92;24.39;99147.41;4470544;32;34584;-71
2022/04/21 11:16:45;;;;;;;;;;;;;;;19.76;24.32;99153.91;4486384;31;33170;-70
2022/04/21 11:19:28;;;;;;;;;;;;;;;20.08;24.15;99149.09;4490531;31;33622;-68
2022/04/21 11:22:02;;;;;;;;;;;;;;;20.24;24.26;99148.84;4471959;31;34109;-70
2022/04/21 11:24:49;;;;;;;;;;;;;;;19.35;24.52;99147.22;4483170;31;34547;-70
2022/04/21 11:27:26;;;;;;;;;;;;;;;19.09;24.83;99146.59;4487587;31;34198;-69
2022/04/21 11:30:02;;;;;;;;;;;;;;;18.47;24.95;99152.16;4469976;31;32316;-70
2022/04/21 11:32:30;;;;;;;;;;;;;;;19.71;23.93;99144.62;4489526;31;33893;-70
2022/04/21 11:34:59;;;;;;;;;;;;;;;19.04;24.67;99140.91;4485929;31;35251;-68
2022/04/21 11:37:50;;;;;;;;;;;;;;;18.29;26.21;99148.91;4483647;31;34282;-69
2022/04/21 11:40:18;;;;;;;;;;;;;;;18.97;25.69;99145.38;4469415;31;33288;-70
2022/04/21 11:42:49;;;;;;;;;;;;;;;19.13;25.51;99143.53;4479536;31;34073;-69
2022/04/21 11:45:22;;;;;;;;;;;;;;;19.81;24.88;99128.91;4479406;31;33067;-69
2022/04/21 11:47:52;;;;;;;;;;;;;;;18.39;25.51;99136.81;4492982;31;34578;-69
2022/04/21 11:50:27;;;;;;;;;;;;;;;18.28;25.13;99134.50;4494530;31;32262;-69
2022/04/21 11:52:57;;;;;;;;;;;;;;;18.11;25.90;99132.94;4489672;31;33158;-69
2022/04/21 11:55:28;;;;;;;;;;;;;;;18.97;25.06;99130.97;4471764;31;33781;-70
2022/04/21 11:57:56;;;;;;;;;;;;;;;19.38;24.76;99125.13;4477425;31;34229;-71
2022/04/21 12:08:45;;;;;;;;;;;;;;;19.30;24.67;99115.22;4481280;31;33517;-70
2022/04/21 12:11:17;;;;;;;;;;;;;;;19.33;24.42;99117.56;4495189;31;34699;-71
2022/04/21 12:13:46;;;;;;;;;;;;;;;18.29;25.88;99119.94;4470183;31;33822;-71
2022/04/21 12:16:34;;;;;;;;;;;;;;;18.61;25.55;99109.87;4469410;31;32908;-71
2022/04/21 12:19:12;;;;;;;;;;;;;;;17.60;26.31;99108.94;4481306;31;34583;-70
2022/04/21 12:21:39;;;;;;;;;;;;;;;19.61;25.07;99093.28;4487707;31;32424;-71
2022/04/21 12:24:17;;;;;;;;;;;;;;;19.98;24.80;99099.66;4485427;31;33449;-71
2022/04/21 12:26:51;;;;;;;;;;;;;;;19.37;24.41;99096.31;4480914;31;34120;-71
2022/04/21 12:29:21;;;;;;;;;;;;;;;18.90;25.07;99097.47;4481401;31;34342;-71
2022/04/21 12:31:53;;;;;;;;;;;;;;;18.07;26.50;99101.78;4482687;31;32117;-69
2022/04/21 12:34:21;;;;;;;;;;;;;;;18.53;24.93;99099.13;4484830;31;34240;-70
2022/04/21 12:36:50;;;;;;;;;;;;;;;18.66;25.33;99087.69;4478029;31;32733;-70
2022/04/21 12:39:19;;;;;;;;;;;;;;;18.97;25.45;99091.16;4482571;31;33235;-69
2022/04/21 12:42:07;;;;;;;;;;;;;;;19.55;24.44;99094.91;4482336;31;32565;-69
2022/04/21 12:44:34;;;;;;;;;;;;;;;18.81;25.16;99094.84;4486892;31;34992;-70
2022/04/21 12:47:12;;;;;;;;;;;;;;;19.07;25.28;99102.56;4467908;31;34193;-69
2022/04/21 12:49:58;;;;;;;;;;;;;;;19.09;26.04;99094.22;4477541;31;33961;-70
2022/04/21 12:52:26;;;;;;;;;;;;;;;19.12;25.65;99093.03;4478679;31;33477;-69
2022/04/21 12:54:55;;;;;;;;;;;;;;;19.88;24.79;99099.13;4486117;31;35042;-70
2022/04/21 12:57:23;;;;;;;;;;;;;;;20.24;24.57;99094.50;4488482;31;32933;-70
2022/04/21 12:59:51;;;;;;;;;;;;;;;19.78;24.48;99094.81;4479840;31;35578;-70
2022/04/21 13:02:19;;;;;;;;;;;;;;;18.91;25.74;99099.16;4469125;32;31946;-68
2022/04/21 13:04:47;;;;;;;;;;;;;;;19.42;24.58;99093.87;4482388;31;33187;-71
2022/04/21 13:07:15;;;;;;;;;;;;;;;20.10;23.73;99089.16;4485209;31;34687;-70
2022/04/21 13:09:43;;;;;;;;;;;;;;;18.54;25.50;99081.84;4486372;31;34392;-69
2022/04/21 13:12:11;;;;;;;;;;;;;;;18.98;24.95;99092.81;4480229;31;34151;-70
2022/04/21 13:14:39;;;;;;;;;;;;;;;18.30;25.74;99099.13;4479914;31;35222;-70
2022/04/21 13:17:07;;;;;;;;;;;;;;;18.17;25.70;99097.03;4482535;31;34265;-70
2022/04/21 13:19:35;;;;;;;;;;;;;;;19.03;25.46;99090.38;4487965;31;34614;-69
2022/04/21 13:22:04;;;;;;;;;;;;;;;19.00;25.61;99085.31;4486969;31;33162;-69
2022/04/21 13:24:32;;;;;;;;;;;;;;;18.62;25.38;99079.06;4470037;31;33419;-69
2022/04/21 13:27:02;;;;;;;;;;;;;;;18.05;26.78;99090.31;4482505;31;33590;-69
2022/04/21 13:29:29;;;;;;;;;;;;;;;17.81;26.73;99094.81;4484489;31;35500;-70
2022/04/21 13:34:45;;;;;;;;;;;;;;;18.80;25.31;99086.87;4482368;31;32681;-71
2022/04/21 13:37:13;;;;;;;;;;;;;;;18.17;26.26;99091.59;4479639;31;32868;-72
2022/04/21 13:39:41;;;;;;;;;;;;;;;18.14;27.36;99092.81;4479867;31;34232;-69
2022/04/21 13:42:09;;;;;;;;;;;;;;;17.98;26.95;99087.50;4482696;31;33737;-70
2022/04/21 13:44:37;;;;;;;;;;;;;;;17.84;27.25;99090.94;4479522;31;35024;-70
2022/04/21 13:47:24;;;;;;;;;;;;;;;18.49;26.31;99086.94;4470100;32;32646;-71
2022/04/21 13:49:52;;;;;;;;;;;;;;;18.61;26.45;99080.06;4478021;31;35561;-68
2022/04/21 13:52:20;;;;;;;;;;;;;;;18.03;26.81;99093.19;4481015;31;33578;-70
2022/04/21 13:54:48;;;;;;;;;;;;;;;17.22;28.07;99106.03;4476447;31;33141;-70
2022/04/21 13:57:16;;;;;;;;;;;;;;;17.45;27.76;99092.59;4481041;31;32991;-70
2022/04/21 13:59:43;;;;;;;;;;;;;;;18.54;26.50;99084.53;4476937;31;34268;-70
2022/04/21 14:02:11;;;;;;;;;;;;;;;17.65;27.49;99092.16;4484064;31;33819;-69
2022/04/21 14:04:39;;;;;;;;;;;;;;;17.36;28.09;99087.37;4485066;31;34384;-69
2022/04/21 14:07:07;;;;;;;;;;;;;;;17.59;28.26;99088.31;4478000;31;32942;-68